Time;durP1;ratioP1;P1;durP2;ratioP2;P2;SDS_P1;SDS_P2;PMS_P1;PMS_P2;Temp;Humidity;BMP_temperature;BMP_pressure;BME280_temperature;BME280_humidity;BME280_pressure;Samples;Min_cycle;Max_cycle;Signal;HPM_P1;HPM_P2
2022/02/21 00:00:41;;;;;;;0.85;0.20;;;;;;;20.43;44.08;98455.56;5072560;28;20016;-61
2022/02/21 00:03:07;;;;;;;0.73;0.20;;;;;;;20.38;44.38;98458.16;5072713;28;20077;-61
2022/02/21 00:05:33;;;;;;;0.20;0.10;;;;;;;20.37;44.97;98436.59;5072710;28;20467;-61
2022/02/21 00:07:59;;;;;;;0.43;0.10;;;;;;;20.34;44.70;98426.16;5058837;28;20039;-61
2022/02/21 00:10:24;;;;;;;0.22;0.00;;;;;;;20.33;44.63;98424.50;5052667;28;20029;-61
2022/02/21 00:12:50;;;;;;;0.43;0.17;;;;;;;20.32;44.84;98409.19;5050998;28;20028;-61
2022/02/21 00:15:18;;;;;;;0.85;0.17;;;;;;;20.30;44.62;98403.13;5052660;28;20218;-61
2022/02/21 00:17:44;;;;;;;0.10;0.08;;;;;;;20.50;47.68;98394.56;5052340;28;20028;-61
2022/02/21 00:20:10;;;;;;;0.10;0.10;;;;;;;20.77;50.56;98392.06;5052446;28;20392;-61
2022/02/21 00:22:35;;;;;;;0.55;0.00;;;;;;;20.86;51.30;98379.66;5052468;28;20028;-61
2022/02/21 00:25:02;;;;;;;0.00;0.00;;;;;;;20.97;50.74;98367.81;5052004;28;20459;-61
2022/02/21 00:27:27;;;;;;;0.35;0.00;;;;;;;21.03;53.55;98358.66;5051961;28;20079;-61
2022/02/21 00:29:52;;;;;;;0.25;0.10;;;;;;;21.06;54.55;98357.31;5052055;28;20510;-60
2022/02/21 00:32:17;;;;;;;0.55;0.10;;;;;;;21.11;55.45;98360.13;5052364;28;20052;-61
2022/02/21 00:34:43;;;;;;;0.43;0.10;;;;;;;21.14;55.68;98355.00;5052147;28;20108;-61
2022/02/21 00:37:08;;;;;;;0.30;0.10;;;;;;;21.16;57.02;98350.09;5057849;28;20029;-61
2022/02/21 00:39:33;;;;;;;0.20;0.10;;;;;;;21.20;57.51;98353.19;5072369;28;20023;-61
2022/02/21 00:41:59;;;;;;;0.77;0.10;;;;;;;21.20;56.67;98334.06;5072336;28;20028;-61
2022/02/21 00:44:24;;;;;;;0.52;0.20;;;;;;;21.21;57.75;98328.34;5072367;28;20028;-61
2022/02/21 00:46:50;;;;;;;0.63;0.10;;;;;;;21.29;57.36;98314.28;5072047;28;20055;-61
2022/02/21 00:49:15;;;;;;;0.30;0.00;;;;;;;21.29;56.27;98308.00;5072326;28;20029;-61
2022/02/21 00:51:40;;;;;;;0.17;0.00;;;;;;;21.32;57.43;98297.38;5070755;28;20449;-61
2022/02/21 00:54:06;;;;;;;0.80;0.05;;;;;;;21.37;57.40;98285.72;5071903;28;20061;-61
2022/02/21 00:56:31;;;;;;;0.10;0.00;;;;;;;21.38;56.45;98276.44;5072240;28;20032;-61
2022/02/21 00:58:56;;;;;;;0.45;0.10;;;;;;;21.44;56.57;98255.47;5071941;28;20493;-61
2022/02/21 01:01:22;;;;;;;0.45;0.10;;;;;;;21.49;57.13;98253.59;5072121;28;20471;-61
2022/02/21 01:03:47;;;;;;;1.10;0.10;;;;;;;21.51;55.63;98245.19;5061022;28;20021;-61
2022/02/21 01:06:12;;;;;;;0.00;0.00;;;;;;;21.56;55.91;98237.03;5052066;28;20017;-61
2022/02/21 01:08:38;;;;;;;0.30;0.00;;;;;;;21.57;55.30;98222.28;5051981;28;20025;-61
2022/02/21 01:11:03;;;;;;;0.30;0.10;;;;;;;21.59;55.54;98220.13;5051920;28;20034;-61
2022/02/21 01:13:29;;;;;;;0.20;0.10;;;;;;;21.62;55.42;98205.94;5051922;28;20032;-61
2022/02/21 01:15:54;;;;;;;0.70;0.20;;;;;;;21.65;55.92;98201.84;5051692;28;20082;-61
2022/02/21 01:18:21;;;;;;;0.80;0.30;;;;;;;21.66;55.01;98189.84;5051956;28;20029;-61
2022/02/21 01:20:46;;;;;;;0.57;0.20;;;;;;;21.66;55.49;98184.38;5051728;28;20055;-60
2022/02/21 01:23:12;;;;;;;0.20;0.05;;;;;;;21.70;55.73;98169.97;5051857;28;20461;-61
2022/02/21 01:25:37;;;;;;;1.23;0.20;;;;;;;21.69;55.41;98157.38;5051722;28;20046;-61
2022/02/21 01:28:02;;;;;;;0.30;0.10;;;;;;;21.70;54.64;98156.28;5051710;28;20029;-61
2022/02/21 01:30:28;;;;;;;0.60;0.10;;;;;;;21.69;55.43;98138.22;5051875;28;20025;-61
2022/02/21 01:32:53;;;;;;;0.80;0.13;;;;;;;21.72;54.55;98121.31;5054245;28;20368;-61
2022/02/21 01:35:18;;;;;;;0.08;0.08;;;;;;;21.77;54.89;98109.59;5071852;28;20028;-61
2022/02/21 01:37:44;;;;;;;0.40;0.17;;;;;;;21.76;55.01;98099.72;5073243;28;20024;-61
2022/02/21 01:40:10;;;;;;;0.55;0.10;;;;;;;21.76;54.51;98084.16;5075364;28;20020;-61
2022/02/21 01:42:36;;;;;;;0.20;0.13;;;;;;;21.77;54.65;98077.59;5075267;28;20032;-61
2022/02/21 01:45:03;;;;;;;0.20;0.08;;;;;;;21.78;53.83;98081.97;5075196;28;20426;-61
2022/02/21 01:47:28;;;;;;;0.05;0.05;;;;;;;21.77;53.94;98077.59;5075501;28;20025;-61
2022/02/21 01:49:53;;;;;;;0.65;0.08;;;;;;;21.77;55.61;98068.56;5074885;28;20025;-61
2022/02/21 01:52:20;;;;;;;0.03;0.03;;;;;;;21.80;54.26;98062.59;5075310;28;20024;-60
2022/02/21 01:54:45;;;;;;;0.45;0.10;;;;;;;21.79;54.33;98044.53;5074751;28;20051;-60
2022/02/21 01:57:12;;;;;;;0.47;0.10;;;;;;;21.80;53.86;98038.78;5075123;28;20025;-61
2022/02/21 01:59:38;;;;;;;0.47;0.20;;;;;;;21.81;54.50;98032.25;5074966;28;20029;-61
2022/02/21 02:02:05;;;;;;;0.15;0.00;;;;;;;21.80;54.75;98030.59;5074888;28;20209;-61
2022/02/21 02:04:31;;;;;;;4.50;0.65;;;;;;;21.80;53.93;98018.84;5058548;28;20028;-61
2022/02/21 02:06:57;;;;;;;0.68;0.30;;;;;;;21.81;54.37;98015.84;5067619;28;20088;-61
2022/02/21 02:09:23;;;;;;;0.17;0.00;;;;;;;21.81;54.20;98004.06;5054913;28;20040;-60
2022/02/21 02:11:49;;;;;;;0.30;0.20;;;;;;;21.85;54.56;97995.09;5054491;28;20094;-61
2022/02/21 02:14:28;;;;;;;0.70;0.15;;;;;;;21.83;54.54;97980.84;5054748;28;20021;-61
2022/02/21 02:16:54;;;;;;;0.38;0.20;;;;;;;21.84;54.53;97966.13;5054775;28;20471;-60
2022/02/21 02:19:19;;;;;;;0.30;0.10;;;;;;;21.82;54.30;97964.69;5054748;28;20112;-61
2022/02/21 02:21:48;;;;;;;0.35;0.00;;;;;;;21.85;54.45;97934.94;5055711;28;20029;-61
2022/02/21 02:24:13;;;;;;;0.20;0.05;;;;;;;21.82;53.45;97929.97;5054555;28;20464;-61
2022/02/21 02:26:40;;;;;;;0.47;0.17;;;;;;;21.83;53.51;97917.94;5056905;28;20107;-61
2022/02/21 02:29:05;;;;;;;1.50;0.25;;;;;;;21.82;53.69;97913.56;5054700;28;20025;-61
2022/02/21 02:31:31;;;;;;;0.25;0.10;;;;;;;21.83;54.39;97904.28;5054473;28;20357;-61
2022/02/21 02:33:56;;;;;;;0.75;0.10;;;;;;;21.84;54.71;97897.75;5054046;28;20075;-60
2022/02/21 02:36:21;;;;;;;0.05;0.00;;;;;;;21.83;54.56;97887.88;5053075;28;20032;-61
2022/02/21 02:38:47;;;;;;;0.55;0.25;;;;;;;21.85;54.36;97885.72;5054108;28;20025;-61
2022/02/21 02:41:12;;;;;;;0.10;0.03;;;;;;;21.84;54.84;97873.16;5055277;28;20021;-61
2022/02/21 02:43:39;;;;;;;0.75;0.20;;;;;;;21.87;56.01;97852.66;5068018;28;20363;-61
2022/02/21 02:46:04;;;;;;;0.77;0.20;;;;;;;21.85;55.11;97841.97;5074112;28;20021;-60
2022/02/21 02:48:29;;;;;;;0.40;0.10;;;;;;;21.84;55.47;97826.66;5073367;28;20058;-60
2022/02/21 02:50:56;;;;;;;0.63;0.10;;;;;;;21.85;55.11;97822.84;5073723;28;20028;-60
2022/02/21 02:53:21;;;;;;;0.70;0.10;;;;;;;21.85;55.68;97798.22;5067860;28;20116;-60
2022/02/21 02:55:46;;;;;;;0.30;0.10;;;;;;;21.88;55.87;97797.69;5053693;28;20111;-60
2022/02/21 02:58:11;;;;;;;0.22;0.10;;;;;;;21.85;55.60;97787.28;5054150;28;20021;-61
2022/02/21 03:00:37;;;;;;;0.15;0.08;;;;;;;21.85;55.48;97776.34;5053771;28;20025;-60
2022/02/21 03:03:02;;;;;;;0.40;0.08;;;;;;;21.86;55.46;97766.22;5053711;28;20027;-60
2022/02/21 03:05:28;;;;;;;0.20;0.10;;;;;;;21.85;56.21;97754.47;5053859;28;20029;-60
2022/02/21 03:07:53;;;;;;;0.13;0.03;;;;;;;21.83;55.80;97753.91;5053445;28;20056;-60
2022/02/21 03:10:19;;;;;;;0.10;0.10;;;;;;;21.87;55.78;97746.00;5053765;28;20055;-60
2022/02/21 03:12:45;;;;;;;0.35;0.20;;;;;;;21.85;55.84;97743.53;5072685;28;20529;-60
2022/02/21 03:15:10;;;;;;;0.40;0.10;;;;;;;21.84;57.27;97730.97;5038486;28;20104;-60
2022/02/21 03:17:36;;;;;;;0.75;0.30;;;;;;;21.86;55.82;97720.56;5032336;28;20025;-61
2022/02/21 03:20:01;;;;;;;1.48;0.13;;;;;;;21.85;56.46;97705.25;5033437;28;20497;-61
2022/02/21 03:22:26;;;;;;;0.68;0.30;;;;;;;21.85;56.20;97699.78;5042842;28;20024;-60
2022/02/21 03:24:52;;;;;;;0.52;0.28;;;;;;;21.86;55.72;97690.50;5053168;28;20066;-61
2022/02/21 03:27:17;;;;;;;0.40;0.10;;;;;;;21.85;56.01;97679.84;5053461;28;20516;-60
2022/02/21 03:29:44;;;;;;;0.13;0.10;;;;;;;21.86;55.96;97681.47;5051858;28;20024;-60
2022/02/21 03:32:09;;;;;;;0.47;0.20;;;;;;;21.83;56.17;97663.66;5053499;28;20100;-60
2022/02/21 03:34:34;;;;;;;0.75;0.20;;;;;;;21.85;57.03;97647.84;5053187;28;20475;-60
2022/02/21 03:37:00;;;;;;;0.32;0.15;;;;;;;21.86;56.26;97635.81;5052951;28;20017;-61
2022/02/21 03:39:25;;;;;;;0.30;0.10;;;;;;;21.86;56.70;97638.53;5053275;28;20043;-60
2022/02/21 03:41:50;;;;;;;0.38;0.20;;;;;;;21.86;56.19;97619.41;5064204;28;20048;-61
2022/02/21 03:44:16;;;;;;;1.17;0.20;;;;;;;21.86;57.28;97607.66;5057088;28;20033;-61
2022/02/21 03:46:43;;;;;;;0.45;0.10;;;;;;;21.88;56.82;97595.34;5053161;28;20025;-60
2022/02/21 03:49:09;;;;;;;0.30;0.17;;;;;;;21.87;56.48;97590.97;5053262;28;20025;-61
2022/02/21 03:51:34;;;;;;;0.35;0.10;;;;;;;21.88;56.52;97550.78;5052945;28;20017;-60
2022/02/21 03:53:59;;;;;;;1.20;0.32;;;;;;;21.87;57.32;97541.75;5052436;28;20524;-61
2022/02/21 03:56:24;;;;;;;0.50;0.10;;;;;;;21.86;56.74;97510.03;5052872;28;20025;-61
2022/02/21 03:58:50;;;;;;;0.65;0.20;;;;;;;21.86;56.70;97558.44;5052577;28;20029;-61
2022/02/21 04:01:16;;;;;;;0.00;0.00;;;;;;;21.86;57.84;97547.50;5052714;28;20043;-60
2022/02/21 04:03:41;;;;;;;0.22;0.20;;;;;;;21.86;56.70;97534.66;5052812;28;20437;-61
2022/02/21 04:06:06;;;;;;;0.20;0.10;;;;;;;21.86;56.25;97525.63;5052705;28;20116;-61
2022/02/21 04:08:32;;;;;;;0.47;0.10;;;;;;;21.86;56.70;97520.97;5052730;28;20475;-61
2022/02/21 04:10:58;;;;;;;1.15;0.20;;;;;;;21.86;57.24;97520.97;5059140;28;20138;-61
2022/02/21 04:13:23;;;;;;;0.50;0.13;;;;;;;21.86;56.15;97517.41;5072570;28;20507;-61
2022/02/21 04:15:49;;;;;;;0.20;0.10;;;;;;;21.87;55.83;97500.75;5072331;28;20025;-60
2022/02/21 04:18:14;;;;;;;1.27;0.60;;;;;;;21.86;56.06;97485.44;5072603;28;20047;-60
2022/02/21 04:20:39;;;;;;;0.88;0.20;;;;;;;21.88;56.54;97483.25;5072416;28;20514;-60
2022/02/21 04:23:05;;;;;;;0.40;0.13;;;;;;;21.85;56.30;97431.84;5072441;28;20096;-60
2022/02/21 04:25:30;;;;;;;1.15;0.32;;;;;;;21.85;56.06;97418.16;5072456;28;20464;-61
2022/02/21 04:27:56;;;;;;;0.77;0.32;;;;;;;21.83;56.71;97416.78;5072187;28;20057;-60
2022/02/21 04:30:27;;;;;;;0.30;0.17;;;;;;;21.83;56.34;97409.41;5072441;28;20028;-60
2022/02/21 04:32:53;;;;;;;0.30;0.10;;;;;;;21.85;56.70;97393.56;5072144;28;20028;-60
2022/02/21 04:35:20;;;;;;;1.13;0.13;;;;;;;21.83;56.49;97395.72;5072431;28;20024;-60
2022/02/21 04:37:46;;;;;;;0.85;0.10;;;;;;;21.82;56.51;97377.69;5072043;28;20068;-60
2022/02/21 04:40:14;;;;;;;0.13;0.03;;;;;;;21.86;56.15;97377.97;5071845;28;20029;-60
2022/02/21 04:42:39;;;;;;;0.20;0.10;;;;;;;21.83;56.10;97362.94;5052171;28;20147;-61
2022/02/21 04:45:06;;;;;;;0.35;0.10;;;;;;;21.82;56.76;97355.81;5052250;28;20466;-60
2022/02/21 04:47:31;;;;;;;0.15;0.00;;;;;;;21.82;56.30;97344.88;5052228;28;20483;-60
2022/02/21 04:49:56;;;;;;;0.40;0.10;;;;;;;21.87;57.07;97347.63;5050661;28;20064;-60
2022/02/21 04:52:22;;;;;;;1.35;0.10;;;;;;;21.85;56.63;97344.34;5052259;28;20031;-60
2022/02/21 04:54:47;;;;;;;1.80;0.10;;;;;;;21.84;57.02;97337.25;5051766;28;20033;-60
2022/02/21 04:57:13;;;;;;;0.75;0.17;;;;;;;21.81;56.47;97324.13;5052056;28;20025;-60
2022/02/21 04:59:38;;;;;;;0.70;0.20;;;;;;;21.83;57.36;97310.97;5051981;28;20379;-60
2022/02/21 05:02:04;;;;;;;0.55;0.10;;;;;;;22.73;54.59;97293.59;5051980;28;20128;-61
2022/02/21 05:04:29;;;;;;;0.40;0.08;;;;;;;23.18;53.40;97283.41;5052163;28;20048;-61
2022/02/21 05:06:56;;;;;;;0.28;0.10;;;;;;;23.38;53.16;97278.56;5052085;28;20045;-60
2022/02/21 05:09:21;;;;;;;0.80;0.10;;;;;;;23.52;53.09;97278.69;5052053;28;20031;-60
2022/02/21 05:11:47;;;;;;;0.47;0.10;;;;;;;23.66;52.47;97290.59;5067838;28;20490;-60
2022/02/21 05:14:12;;;;;;;0.28;0.03;;;;;;;23.71;52.65;97287.03;5075861;28;20380;-60
2022/02/21 05:16:37;;;;;;;0.60;0.15;;;;;;;23.81;52.40;97266.88;5075894;28;20372;-61
2022/02/21 05:19:03;;;;;;;0.47;0.10;;;;;;;23.85;52.13;97232.25;5075739;28;20066;-60
2022/02/21 05:21:29;;;;;;;0.65;0.10;;;;;;;23.91;51.86;97231.91;5075773;28;20024;-60
2022/02/21 05:23:55;;;;;;;0.38;0.20;;;;;;;23.97;51.59;97229.91;5075366;28;20024;-60
2022/02/21 05:26:20;;;;;;;1.02;0.13;;;;;;;24.01;51.90;97211.75;5075697;28;20153;-60
2022/02/21 05:28:45;;;;;;;1.20;0.10;;;;;;;24.04;52.41;97202.97;5075483;28;20036;-61
2022/02/21 05:31:10;;;;;;;0.10;0.00;;;;;;;24.10;52.09;97206.44;5075595;28;20059;-60
2022/02/21 05:33:36;;;;;;;0.70;0.10;;;;;;;24.14;51.97;97202.78;5075382;28;20032;-60
2022/02/21 05:36:01;;;;;;;0.30;0.05;;;;;;;24.18;51.15;97181.88;5075368;28;20029;-60
2022/02/21 05:38:26;;;;;;;0.25;0.08;;;;;;;24.20;51.55;97179.69;5074220;28;20364;-61
2022/02/21 05:40:52;;;;;;;0.70;0.10;;;;;;;24.22;51.03;97173.91;5067026;28;20513;-60
2022/02/21 05:43:17;;;;;;;0.20;0.00;;;;;;;24.28;51.80;97164.47;5055737;28;20032;-60
2022/02/21 05:45:42;;;;;;;0.75;0.10;;;;;;;24.27;52.09;97158.16;5055187;28;20025;-61
2022/02/21 05:48:07;;;;;;;0.25;0.20;;;;;;;24.29;51.23;97155.97;5055222;28;20412;-60
2022/02/21 05:50:33;;;;;;;0.50;0.10;;;;;;;24.32;50.68;97154.53;5055310;28;20032;-61
2022/02/21 05:52:58;;;;;;;0.38;0.10;;;;;;;24.36;51.17;97149.28;5054805;28;20070;-60
2022/02/21 05:55:23;;;;;;;0.55;0.08;;;;;;;24.39;51.86;97141.28;5055139;28;20052;-60
2022/02/21 05:57:49;;;;;;;0.35;0.10;;;;;;;24.39;50.53;97129.47;5054864;28;20021;-60
2022/02/21 06:00:14;;;;;;;0.52;0.10;;;;;;;24.39;50.92;97121.25;5055056;28;20025;-60
2022/02/21 06:02:40;;;;;;;0.45;0.10;;;;;;;24.41;51.18;97108.84;5054951;28;20025;-60
2022/02/21 06:05:05;;;;;;;0.45;0.22;;;;;;;24.41;50.73;97102.53;5054781;28;20460;-60
2022/02/21 06:07:30;;;;;;;0.43;0.22;;;;;;;24.45;50.87;97101.63;5054981;28;20024;-61
2022/02/21 06:09:56;;;;;;;0.45;0.08;;;;;;;24.45;50.56;97093.41;5056899;28;20481;-61
2022/02/21 06:12:21;;;;;;;0.30;0.10;;;;;;;24.48;50.52;97081.00;5074930;28;20078;-60
2022/02/21 06:14:46;;;;;;;0.20;0.00;;;;;;;24.46;50.42;97075.00;5074564;28;20543;-60
2022/02/21 06:17:12;;;;;;;0.32;0.00;;;;;;;24.48;50.15;97059.84;5074748;28;20043;-61
2022/02/21 06:19:37;;;;;;;1.10;0.40;;;;;;;24.47;50.62;97057.41;5074607;28;20031;-60
2022/02/21 06:22:03;;;;;;;0.68;0.13;;;;;;;24.49;50.11;97044.19;5074562;28;20414;-60
2022/02/21 06:24:28;;;;;;;0.93;0.30;;;;;;;24.53;49.99;97045.25;5073345;28;20024;-60
2022/02/21 06:26:53;;;;;;;0.63;0.20;;;;;;;24.52;50.42;97029.84;5055474;28;20111;-60
2022/02/21 06:29:20;;;;;;;0.22;0.10;;;;;;;24.55;50.69;97032.03;5054634;28;20345;-60
2022/02/21 06:31:46;;;;;;;0.32;0.10;;;;;;;24.56;50.99;97022.66;5054249;28;20021;-61
2022/02/21 06:34:11;;;;;;;2.63;0.55;;;;;;;24.58;50.54;97017.69;5054655;28;20013;-60
2022/02/21 06:36:36;;;;;;;0.82;0.20;;;;;;;24.49;50.08;97014.81;5054343;28;20070;-60
2022/02/21 06:39:02;;;;;;;0.20;0.10;;;;;;;24.54;50.50;96997.44;5054231;28;20179;-61
2022/02/21 06:41:28;;;;;;;3.20;0.22;;;;;;;24.52;50.52;96988.69;5067838;28;20103;-60
2022/02/21 06:43:53;;;;;;;0.25;0.10;;;;;;;24.57;50.65;96985.84;5073929;28;20055;-60
2022/02/21 06:46:18;;;;;;;0.20;0.10;;;;;;;24.59;50.22;96972.63;5074321;28;20028;-60
2022/02/21 06:48:44;;;;;;;0.15;0.00;;;;;;;24.60;50.31;96969.59;5073931;28;20020;-61
2022/02/21 06:51:09;;;;;;;0.43;0.00;;;;;;;24.60;49.86;96961.34;5074415;28;20162;-60
2022/02/21 06:53:35;;;;;;;0.13;0.13;;;;;;;24.56;50.30;96956.78;5073821;28;20039;-60
2022/02/21 06:56:00;;;;;;;0.25;0.22;;;;;;;24.60;50.40;96944.06;5074145;28;20025;-61
2022/02/21 06:58:25;;;;;;;0.10;0.00;;;;;;;24.53;49.69;96941.72;5074014;28;20024;-60
2022/02/21 07:00:51;;;;;;;0.30;0.10;;;;;;;24.59;50.30;96928.72;5073658;28;20054;-61
2022/02/21 07:03:16;;;;;;;1.10;0.10;;;;;;;24.58;49.61;96922.41;5073953;28;20024;-61
2022/02/21 07:05:41;;;;;;;3.50;0.20;;;;;;;24.62;49.90;96930.84;5073564;28;20489;-61
2022/02/21 07:08:07;;;;;;;1.30;0.50;;;;;;;24.57;50.08;96925.47;5073693;28;20028;-61
2022/02/21 07:10:33;;;;;;;1.10;0.10;;;;;;;24.60;49.59;96930.34;5063778;28;20029;-61
2022/02/21 07:12:58;;;;;;;0.50;0.30;;;;;;;24.62;50.01;96919.84;5053404;28;20025;-61
2022/02/21 07:15:23;;;;;;;0.45;0.10;;;;;;;24.63;49.91;96912.44;5053656;28;20029;-61
2022/02/21 07:17:49;;;;;;;0.50;0.10;;;;;;;24.61;49.86;96899.00;5053339;28;20025;-61
2022/02/21 07:20:15;;;;;;;0.65;0.20;;;;;;;24.66;49.91;96889.84;5053845;28;20025;-60
2022/02/21 07:22:42;;;;;;;0.32;0.30;;;;;;;24.67;49.92;96889.53;5053731;28;20021;-61
2022/02/21 07:25:09;;;;;;;0.10;0.10;;;;;;;24.62;50.26;96889.66;5053389;28;20435;-60
2022/02/21 07:27:47;;;;;;;1.77;0.15;;;;;;;24.63;49.12;96877.56;5053432;28;20105;-60
2022/02/21 07:30:14;;;;;;;0.30;0.13;;;;;;;24.64;50.22;96864.63;5053408;28;20021;-60
2022/02/21 07:32:39;;;;;;;0.00;0.00;;;;;;;24.69;49.36;96862.63;5053290;28;20063;-60
2022/02/21 07:35:06;;;;;;;0.28;0.10;;;;;;;24.68;50.04;96866.44;5052772;28;20029;-61
2022/02/21 07:37:31;;;;;;;0.35;0.10;;;;;;;24.68;49.74;96854.66;5053263;28;20111;-61
2022/02/21 07:39:56;;;;;;;0.80;0.10;;;;;;;24.72;49.64;96853.75;5057244;28;20199;-61
2022/02/21 07:42:22;;;;;;;0.30;0.10;;;;;;;24.67;50.00;96842.06;5073076;28;20021;-61
2022/02/21 07:44:50;;;;;;;0.52;0.20;;;;;;;24.64;49.56;96843.47;5067494;28;20052;-60
2022/02/21 07:47:16;;;;;;;1.55;0.32;;;;;;;24.63;49.80;96833.63;5053131;28;20037;-60
2022/02/21 07:49:42;;;;;;;0.35;0.10;;;;;;;24.66;49.35;96835.75;5052813;28;20086;-61
2022/02/21 07:52:07;;;;;;;0.40;0.10;;;;;;;24.72;49.50;96820.81;5053766;28;20027;-61
2022/02/21 07:54:32;;;;;;;0.20;0.10;;;;;;;24.71;49.95;96824.69;5052697;28;20037;-61
2022/02/21 07:57:00;;;;;;;0.75;0.10;;;;;;;24.64;49.80;96799.56;5054367;28;20025;-61
2022/02/21 07:59:26;;;;;;;0.10;0.10;;;;;;;24.70;50.21;96803.84;5072866;28;20032;-61
2022/02/21 08:01:51;;;;;;;0.25;0.10;;;;;;;24.68;49.32;96797.81;5072737;28;20024;-61
2022/02/21 08:04:16;;;;;;;0.60;0.00;;;;;;;24.73;49.63;96783.16;5072749;28;20150;-61
2022/02/21 08:06:42;;;;;;;0.35;0.10;;;;;;;24.71;49.45;96778.00;5072599;28;20031;-61
2022/02/21 08:09:07;;;;;;;0.00;0.00;;;;;;;24.66;49.24;96786.31;5072660;28;20465;-61
2022/02/21 08:11:33;;;;;;;0.88;0.15;;;;;;;24.70;49.47;96784.59;5054968;28;20482;-61
2022/02/21 08:13:59;;;;;;;0.30;0.30;;;;;;;24.76;49.19;96768.81;5053927;28;20175;-61
2022/02/21 08:16:24;;;;;;;0.10;0.10;;;;;;;24.71;49.32;96761.53;5072686;28;20017;-61
2022/02/21 08:18:50;;;;;;;0.65;0.10;;;;;;;24.76;49.95;96764.13;5072298;28;20056;-61
2022/02/21 08:21:15;;;;;;;1.25;0.32;;;;;;;24.74;49.95;96755.41;5072880;28;20020;-60
2022/02/21 08:23:41;;;;;;;1.27;0.10;;;;;;;24.76;49.47;96758.66;5072299;28;20106;-61
2022/02/21 08:26:06;;;;;;;0.28;0.20;;;;;;;24.74;49.28;96755.41;5072423;28;20031;-60
2022/02/21 08:28:31;;;;;;;0.52;0.00;;;;;;;24.76;49.46;96747.66;5072797;28;20036;-61
2022/02/21 08:30:57;;;;;;;1.95;0.40;;;;;;;24.72;49.73;96743.91;5072219;28;20028;-61
2022/02/21 08:33:22;;;;;;;0.52;0.00;;;;;;;24.72;49.24;96738.44;5072349;28;20033;-60
2022/02/21 08:35:47;;;;;;;0.47;0.10;;;;;;;24.76;50.03;96731.19;5072177;28;20032;-61
2022/02/21 08:38:12;;;;;;;0.15;0.10;;;;;;;24.73;49.72;96731.81;5072367;28;20025;-61
2022/02/21 08:40:39;;;;;;;0.65;0.08;;;;;;;24.75;49.41;96718.56;5061071;28;20112;-61
2022/02/21 08:43:04;;;;;;;0.30;0.10;;;;;;;24.76;49.73;96722.94;5052522;28;20400;-60
2022/02/21 08:45:29;;;;;;;0.65;0.05;;;;;;;24.75;49.18;96713.09;5052547;28;20059;-61
2022/02/21 08:47:55;;;;;;;0.00;0.00;;;;;;;24.73;48.92;96709.84;5054269;28;20021;-61
2022/02/21 08:50:21;;;;;;;0.30;0.10;;;;;;;24.79;49.45;96703.09;5056387;28;20071;-61
2022/02/21 08:52:46;;;;;;;0.60;0.10;;;;;;;24.81;48.91;96697.28;5056008;28;20017;-60
2022/02/21 08:55:15;;;;;;;0.28;0.00;;;;;;;24.74;49.87;96695.00;5056198;28;20021;-60
2022/02/21 08:57:41;;;;;;;1.08;0.10;;;;;;;24.76;49.55;96694.69;5056036;28;20025;-61
2022/02/21 09:00:08;;;;;;;0.30;0.10;;;;;;;24.76;49.98;96687.25;5056114;28;20025;-60
2022/02/21 09:02:34;;;;;;;0.38;0.10;;;;;;;24.78;49.79;96689.69;5056170;28;20522;-61
2022/02/21 09:04:59;;;;;;;0.10;0.10;;;;;;;24.78;48.59;96690.50;5055998;28;20029;-60
2022/02/21 09:07:25;;;;;;;0.30;0.05;;;;;;;24.77;49.24;96679.81;5056057;28;20088;-60
2022/02/21 09:09:50;;;;;;;0.20;0.00;;;;;;;24.78;49.75;96673.19;5058278;28;20115;-60
2022/02/21 09:12:15;;;;;;;1.27;0.00;;;;;;;24.81;49.19;96667.09;5076366;28;20056;-60
2022/02/21 09:14:46;;;;;;;0.60;0.10;;;;;;;24.74;49.79;96662.03;5074938;28;20482;-61
2022/02/21 09:17:12;;;;;;;0.10;0.08;;;;;;;24.83;49.26;96642.84;5075884;28;20028;-61
2022/02/21 09:19:37;;;;;;;0.40;0.20;;;;;;;24.81;49.62;96645.91;5075756;28;20021;-61
2022/02/21 09:22:02;;;;;;;1.75;0.75;;;;;;;24.81;48.91;96645.91;5075806;28;20024;-61
2022/02/21 09:24:28;;;;;;;0.38;0.08;;;;;;;24.81;48.96;96640.44;5075754;28;20029;-61
2022/02/21 09:26:53;;;;;;;1.35;0.10;;;;;;;24.81;49.26;96653.34;5075538;28;20087;-61
2022/02/21 09:29:18;;;;;;;0.82;0.10;;;;;;;24.77;48.98;96655.91;5075720;28;20060;-61
2022/02/21 09:31:43;;;;;;;0.10;0.10;;;;;;;24.79;49.17;96659.16;5070119;28;20039;-60
2022/02/21 09:34:09;;;;;;;0.00;0.00;;;;;;;24.88;49.30;96646.31;5055434;28;20025;-61
2022/02/21 09:36:35;;;;;;;0.70;0.10;;;;;;;24.80;48.98;96644.31;5055555;28;20029;-60
2022/02/21 09:39:01;;;;;;;0.32;0.10;;;;;;;24.80;49.24;96629.75;5055223;28;20021;-60
2022/02/21 09:41:26;;;;;;;0.68;0.32;;;;;;;24.82;49.20;96631.06;5073764;28;20384;-60
2022/02/21 09:43:52;;;;;;;0.20;0.20;;;;;;;24.80;49.87;96633.31;5074939;28;20075;-61
2022/02/21 09:46:17;;;;;;;0.75;0.10;;;;;;;24.80;49.52;96622.34;5075312;28;20487;-60
2022/02/21 09:48:45;;;;;;;0.52;0.10;;;;;;;24.82;49.60;96631.06;5075076;28;20059;-61
2022/02/21 09:51:10;;;;;;;0.88;0.10;;;;;;;24.75;49.67;96618.91;5075183;28;20074;-60
2022/02/21 09:53:37;;;;;;;0.30;0.10;;;;;;;24.83;49.60;96616.22;5073147;28;20037;-60
2022/02/21 09:56:04;;;;;;;0.10;0.10;;;;;;;24.79;49.10;96612.47;5075062;28;20036;-60
2022/02/21 09:58:30;;;;;;;1.02;0.10;;;;;;;24.80;49.80;96605.84;5074754;28;20024;-61
2022/02/21 10:00:56;;;;;;;0.40;0.10;;;;;;;24.80;49.63;96600.38;5074897;28;20387;-60
2022/02/21 10:03:37;;;;;;;0.20;0.03;;;;;;;24.82;49.72;96606.34;5075042;28;20587;-61
2022/02/21 10:06:32;;;;;;;0.20;0.10;;;;;;;24.80;49.78;96605.84;5075455;28;20017;-60
2022/02/21 10:08:57;;;;;;;0.20;0.10;;;;;;;24.82;49.05;96603.59;5012484;28;20396;-61
2022/02/21 10:11:33;;;;;;;0.10;0.10;;;;;;;24.75;48.99;96597.75;5012850;28;20549;-61
2022/02/21 10:14:00;;;;;;;0.28;0.17;;;;;;;24.83;50.00;96596.16;5012402;28;20038;-61
2022/02/21 10:16:36;;;;;;;0.10;0.10;;;;;;;24.80;49.08;96588.56;5012730;28;20601;-60
2022/02/21 10:19:13;;;;;;;0.05;0.00;;;;;;;24.83;49.09;96588.75;5012559;28;20114;-60
2022/02/21 10:22:02;;;;;;;0.13;0.10;;;;;;;24.81;49.35;96601.97;4998402;28;20116;-60
2022/02/21 10:24:51;;;;;;;0.17;0.10;;;;;;;24.79;48.86;96598.75;4981289;28;20089;-61
2022/02/21 10:27:17;;;;;;;0.38;0.20;;;;;;;24.80;48.86;96602.31;4969139;28;20483;-60
2022/02/21 10:29:53;;;;;;;0.20;0.00;;;;;;;24.80;48.56;96605.84;4983253;28;20026;-60
2022/02/21 10:32:21;;;;;;;0.20;0.08;;;;;;;24.82;48.43;96597.31;4981039;28;20082;-62
2022/02/21 10:34:47;;;;;;;0.08;0.03;;;;;;;24.60;44.07;96607.19;4988009;28;20046;-60
2022/02/21 10:37:17;;;;;;;1.60;0.08;;;;;;;24.54;42.87;96602.97;4980369;28;20030;-60
2022/02/21 10:39:43;;;;;;;0.20;0.10;;;;;;;24.87;48.21;96600.75;4985953;28;20145;-60
2022/02/21 10:42:09;;;;;;;1.65;0.20;;;;;;;24.95;48.47;96604.66;4991295;28;20538;-60
2022/02/21 10:44:37;;;;;;;0.77;0.30;;;;;;;24.92;49.19;96607.22;5000232;28;20099;-60
2022/02/21 10:47:02;;;;;;;1.75;0.10;;;;;;;24.92;49.45;96599.78;5034125;28;20029;-60
2022/02/21 10:49:28;;;;;;;0.38;0.10;;;;;;;24.79;49.89;96601.50;5034301;28;20028;-60
2022/02/21 10:51:57;;;;;;;0.20;0.10;;;;;;;24.85;49.82;96596.66;5046212;28;20059;-60
2022/02/21 10:54:35;;;;;;;0.32;0.10;;;;;;;24.86;50.19;96604.63;5064867;28;20036;-60
2022/02/21 10:57:02;;;;;;;0.10;0.10;;;;;;;24.89;48.94;96600.44;5073905;28;20020;-60
2022/02/21 10:59:31;;;;;;;0.22;0.20;;;;;;;24.83;50.17;96599.72;5073969;28;20024;-61
2022/02/21 11:02:00;;;;;;;0.10;0.10;;;;;;;24.86;49.16;96601.88;5073673;28;20083;-60
2022/02/21 11:04:26;;;;;;;1.35;0.20;;;;;;;24.86;49.47;96603.81;5073891;28;20472;-60
2022/02/21 11:06:52;;;;;;;0.57;0.30;;;;;;;24.90;50.02;96605.59;5073636;28;20029;-60
2022/02/21 11:09:20;;;;;;;0.10;0.10;;;;;;;24.83;49.53;96609.91;5073461;28;20029;-60
2022/02/21 11:11:50;;;;;;;0.82;0.20;;;;;;;24.90;49.12;96610.28;5073274;28;20032;-60
2022/02/21 11:14:22;;;;;;;0.57;0.20;;;;;;;24.86;49.98;96610.09;5073961;28;20095;-60
2022/02/21 11:16:49;;;;;;;0.10;0.10;;;;;;;24.87;49.40;96608.97;5073474;28;20032;-60
2022/02/21 11:19:16;;;;;;;0.63;0.20;;;;;;;24.85;49.66;96613.94;5073623;28;20027;-60
2022/02/21 11:21:43;;;;;;;0.20;0.10;;;;;;;24.87;49.42;96617.22;5073397;28;20032;-60
2022/02/21 11:24:09;;;;;;;0.38;0.10;;;;;;;24.87;49.60;96617.22;5063909;28;20017;-60
2022/02/21 11:26:40;;;;;;;0.13;0.08;;;;;;;24.90;49.54;96616.59;5069231;28;20103;-60
2022/02/21 11:29:17;;;;;;;0.20;0.20;;;;;;;24.85;49.48;96619.44;5073367;28;20020;-60